Broad Channel, New York
Current Conditions -  °F | °C
As of 4:51 AM on Saturday 29 Nov 2014 (Local Time) from KJFK Reporting Station
Few Clouds Few Clouds  
Wind Chill: -2°   Ceiling: Unl
Heat Index: -2°   Visibility: 10mi
Dew Point: -11°   Wind: 3mph
Humidity: 51%   Direction: 290°WNW
Pressure: 30.32"   Gusts: NA
Location:  40.6184°N, 73.8256°W
Report Text: KJFK 290951Z 29003KT 10SM FEW250 M02/M11 A3032 RMK AO2 SLP268 T10221111
Loading
Personal Weather Stations






























Interactive Weather Map New forecast layout! Learn more

10-Day Weather Forecast

Advertisements
Track Severe Weather on mobile